createdAt,value
2023-05-04T00:01:11.152Z,0.17
2023-05-04T00:03:12.693Z,0.20
2023-05-04T00:05:14.392Z,0.20
2023-05-04T00:07:16.225Z,0.10
2023-05-04T00:09:17.863Z,0.30
2023-05-04T00:11:19.279Z,0.10
2023-05-04T00:13:20.828Z,0.20
2023-05-04T00:15:22.287Z,0.20
2023-05-04T00:17:23.817Z,0.20
2023-05-04T00:19:25.424Z,0.25
2023-05-04T00:21:27.020Z,0.15
2023-05-04T00:23:28.546Z,0.20
2023-05-04T00:25:30.109Z,0.20
2023-05-04T00:27:31.593Z,0.20
2023-05-04T00:29:33.053Z,0.20
2023-05-04T00:31:34.542Z,0.22
2023-05-04T00:33:36.207Z,0.20
2023-05-04T00:35:37.670Z,0.10
2023-05-04T00:37:39.240Z,0.20
2023-05-04T00:39:40.655Z,0.20
2023-05-04T00:41:42.080Z,0.20
2023-05-04T00:43:43.674Z,0.20
2023-05-04T00:45:45.091Z,0.22
2023-05-04T00:47:46.548Z,0.10
2023-05-04T00:49:48.373Z,0.30
2023-05-04T00:51:51.056Z,0.20
2023-05-04T00:53:53.957Z,0.30
2023-05-04T00:55:55.627Z,0.15
2023-05-04T00:57:57.383Z,0.20
2023-05-04T00:59:58.820Z,0.30
2023-05-04T01:02:00.291Z,0.20
2023-05-04T01:04:02.112Z,0.20
2023-05-04T01:06:22.620Z,0.25
2023-05-04T01:08:27.458Z,0.30
2023-05-04T01:10:49.526Z,0.20
2023-05-04T01:13:00.926Z,0.20
2023-05-04T01:15:02.778Z,0.20
2023-05-04T01:17:05.289Z,0.20
2023-05-04T01:19:06.883Z,0.30
2023-05-04T01:21:09.756Z,0.20
2023-05-04T01:23:11.423Z,0.20
2023-05-04T01:25:12.986Z,0.22
2023-05-04T01:27:19.062Z,0.20
2023-05-04T01:29:25.164Z,0.20
2023-05-04T01:31:27.295Z,0.20
2023-05-04T01:33:29.103Z,0.10
2023-05-04T01:35:30.718Z,0.20
2023-05-04T01:37:32.173Z,0.10
2023-05-04T01:39:34.113Z,0.30
2023-05-04T01:41:36.415Z,0.20
2023-05-04T01:43:37.947Z,0.20
2023-05-04T01:45:39.585Z,0.20
2023-05-04T01:47:41.046Z,0.20
2023-05-04T01:49:42.582Z,0.30
2023-05-04T01:51:45.202Z,0.20
2023-05-04T01:53:46.747Z,0.20
2023-05-04T01:55:48.230Z,0.30
2023-05-04T01:57:49.788Z,0.20
2023-05-04T01:59:51.298Z,0.20
2023-05-04T02:01:52.855Z,0.22
2023-05-04T02:03:54.478Z,0.20
2023-05-04T02:05:56.031Z,0.10
2023-05-04T02:07:57.468Z,0.20
2023-05-04T02:09:58.894Z,0.20
2023-05-04T02:12:00.377Z,0.20
2023-05-04T02:14:01.881Z,0.20
2023-05-04T02:16:03.479Z,0.20
2023-05-04T02:18:05.310Z,0.20
2023-05-04T02:20:07.595Z,0.10
2023-05-04T02:22:09.233Z,0.20
2023-05-04T02:24:10.819Z,0.20
2023-05-04T02:26:12.336Z,0.20
2023-05-04T02:28:13.817Z,0.28
2023-05-04T02:30:15.303Z,0.30
2023-05-04T02:32:17.000Z,0.20
2023-05-04T02:34:18.413Z,0.20
2023-05-04T02:36:19.866Z,0.20
2023-05-04T02:38:21.373Z,0.20
2023-05-04T02:40:22.880Z,0.10
2023-05-04T02:42:24.430Z,0.20
2023-05-04T02:44:25.997Z,0.20
2023-05-04T02:46:27.529Z,0.20
2023-05-04T02:48:29.006Z,0.20
2023-05-04T02:50:30.918Z,0.20
2023-05-04T02:52:32.558Z,0.20
2023-05-04T02:54:33.986Z,0.20
2023-05-04T02:56:35.509Z,0.20
2023-05-04T02:58:36.978Z,0.20
2023-05-04T03:00:38.381Z,0.20
2023-05-04T03:02:39.806Z,0.20
2023-05-04T03:04:41.339Z,0.20
2023-05-04T03:06:42.980Z,0.10
2023-05-04T03:08:44.505Z,0.10
2023-05-04T03:10:45.984Z,0.30
2023-05-04T03:12:47.529Z,0.20
2023-05-04T03:14:48.994Z,0.10
2023-05-04T03:16:50.573Z,0.30
2023-05-04T03:18:52.059Z,0.20
2023-05-04T03:20:53.607Z,0.20
2023-05-04T03:22:55.141Z,0.20
2023-05-04T03:24:56.638Z,0.30
2023-05-04T03:26:58.126Z,0.30
2023-05-04T03:28:59.590Z,0.20
2023-05-04T03:31:01.113Z,0.20
2023-05-04T03:33:02.673Z,0.30
2023-05-04T03:35:04.441Z,0.20
2023-05-04T03:37:05.905Z,0.20
2023-05-04T03:39:07.881Z,0.20
2023-05-04T03:41:10.732Z,0.20
2023-05-04T03:43:12.184Z,0.30
2023-05-04T03:45:13.634Z,0.30
2023-05-04T03:47:15.144Z,0.20
2023-05-04T03:49:16.651Z,0.30
2023-05-04T03:51:18.110Z,0.20
2023-05-04T03:53:19.525Z,0.30
2023-05-04T03:55:21.117Z,0.30
2023-05-04T03:57:24.163Z,0.38
2023-05-04T03:59:25.843Z,0.40
2023-05-04T04:01:27.294Z,0.20
2023-05-04T04:03:28.927Z,0.30
2023-05-04T04:05:30.618Z,0.30
2023-05-04T04:07:33.305Z,0.22
2023-05-04T04:09:34.785Z,0.20
2023-05-04T04:11:36.408Z,0.20
2023-05-04T04:13:37.990Z,0.25
2023-05-04T04:15:41.621Z,0.30
2023-05-04T04:17:44.182Z,0.20
2023-05-04T04:19:45.630Z,0.20
2023-05-04T04:21:47.113Z,0.20
2023-05-04T04:23:48.540Z,0.30
2023-05-04T04:25:50.075Z,0.32
2023-05-04T04:27:51.614Z,0.30
2023-05-04T04:29:53.029Z,0.28
2023-05-04T04:31:54.613Z,0.20
2023-05-04T04:33:56.423Z,0.40
2023-05-04T04:35:57.835Z,0.20
2023-05-04T04:38:01.632Z,0.20
2023-05-04T04:40:06.936Z,0.20
2023-05-04T04:42:08.642Z,0.30
2023-05-04T04:44:10.206Z,0.20
2023-05-04T04:46:11.921Z,0.20
2023-05-04T04:48:13.457Z,0.20
2023-05-04T04:50:14.896Z,0.20
2023-05-04T04:52:17.219Z,0.30
2023-05-04T04:54:18.646Z,0.30
2023-05-04T04:56:20.053Z,0.40
2023-05-04T04:58:21.950Z,0.20
2023-05-04T05:00:24.159Z,0.30
2023-05-04T05:02:26.414Z,0.20
2023-05-04T05:04:28.091Z,0.20
2023-05-04T05:06:29.692Z,0.20
2023-05-04T05:08:32.490Z,0.20
2023-05-04T05:10:34.054Z,0.30
2023-05-04T05:12:35.711Z,0.20
2023-05-04T05:14:37.143Z,0.20
2023-05-04T05:16:38.810Z,0.28
2023-05-04T05:18:40.255Z,0.30
2023-05-04T05:20:41.728Z,0.20
2023-05-04T05:22:43.389Z,0.30
2023-05-04T05:24:44.781Z,0.30
2023-05-04T05:26:46.352Z,0.20
2023-05-04T05:28:47.773Z,0.30
2023-05-04T05:30:52.824Z,0.20
2023-05-04T05:32:54.365Z,0.20
2023-05-04T05:34:56.055Z,0.20
2023-05-04T05:36:58.367Z,0.20
2023-05-04T05:38:59.879Z,0.20
2023-05-04T05:41:01.920Z,0.20
2023-05-04T05:43:06.951Z,0.20
2023-05-04T05:45:09.458Z,0.30
2023-05-04T05:47:10.933Z,0.32
2023-05-04T05:49:12.376Z,0.30
2023-05-04T05:51:13.942Z,0.20
2023-05-04T05:53:15.355Z,0.30
2023-05-04T05:55:16.847Z,0.20
2023-05-04T05:57:18.375Z,0.30
2023-05-04T05:59:19.763Z,0.30
2023-05-04T06:01:21.454Z,0.30
2023-05-04T06:03:23.135Z,0.30
2023-05-04T06:05:24.747Z,0.30
2023-05-04T06:07:26.355Z,0.20
2023-05-04T06:09:27.820Z,0.20
2023-05-04T06:11:29.252Z,0.30
2023-05-04T06:13:30.819Z,0.30
2023-05-04T06:15:32.367Z,0.30
2023-05-04T06:17:33.857Z,0.20
2023-05-04T06:19:38.824Z,0.20
2023-05-04T06:21:40.199Z,0.30
2023-05-04T06:23:42.534Z,0.20
2023-05-04T06:25:44.012Z,0.30
2023-05-04T06:27:45.395Z,0.28
2023-05-04T06:29:47.268Z,0.20
2023-05-04T06:31:48.829Z,0.20
2023-05-04T06:33:50.755Z,0.20
2023-05-04T06:35:52.641Z,0.20
2023-05-04T06:37:54.281Z,0.25
2023-05-04T06:39:56.070Z,0.20
2023-05-04T06:41:58.256Z,0.30
2023-05-04T06:44:00.467Z,0.20
2023-05-04T06:46:04.877Z,0.20
2023-05-04T06:48:07.337Z,0.10
2023-05-04T06:50:09.568Z,0.20
2023-05-04T06:52:11.488Z,0.22
2023-05-04T06:54:13.463Z,0.10
2023-05-04T06:56:15.020Z,0.20
2023-05-04T06:58:16.903Z,0.30
2023-05-04T07:00:18.535Z,0.20
2023-05-04T07:02:20.193Z,0.30
2023-05-04T07:04:24.813Z,0.20
2023-05-04T07:06:29.532Z,0.20
2023-05-04T07:08:31.270Z,0.30
2023-05-04T07:10:32.769Z,0.32
2023-05-04T07:12:34.315Z,0.20
2023-05-04T07:14:35.980Z,0.25
2023-05-04T07:16:37.588Z,0.30
2023-05-04T07:18:40.367Z,0.20
2023-05-04T07:20:42.237Z,0.20
2023-05-04T07:22:43.780Z,0.20
2023-05-04T07:24:45.604Z,0.20
2023-05-04T07:26:47.038Z,0.20
2023-05-04T07:28:48.533Z,0.30
2023-05-04T07:30:50.260Z,0.20
2023-05-04T07:32:51.974Z,0.20
2023-05-04T07:34:53.684Z,0.20
2023-05-04T07:36:55.258Z,0.30
2023-05-04T07:38:56.893Z,0.30
2023-05-04T07:40:58.441Z,0.30
2023-05-04T07:42:59.892Z,0.20
2023-05-04T07:45:01.485Z,0.30
2023-05-04T07:47:03.079Z,0.20
2023-05-04T07:49:04.794Z,0.30
2023-05-04T07:51:06.248Z,0.28
2023-05-04T07:53:08.010Z,0.30
2023-05-04T07:55:09.731Z,0.20
2023-05-04T07:57:11.257Z,0.20
2023-05-04T07:59:12.987Z,0.20
2023-05-04T08:01:14.411Z,0.20
2023-05-04T08:03:16.554Z,0.30
2023-05-04T08:05:18.131Z,0.25
2023-05-04T08:07:20.500Z,0.20
2023-05-04T08:09:21.902Z,0.28
2023-05-04T08:11:23.356Z,0.20
2023-05-04T08:13:24.852Z,0.30
2023-05-04T08:15:26.340Z,0.20
2023-05-04T08:17:28.401Z,0.30
2023-05-04T08:19:29.986Z,0.22
2023-05-04T08:21:31.587Z,0.20
2023-05-04T08:23:33.489Z,0.20
2023-05-04T08:25:34.983Z,0.30
2023-05-04T08:27:36.545Z,0.28
2023-05-04T08:29:38.392Z,0.20
2023-05-04T08:31:42.756Z,0.30
2023-05-04T08:33:45.988Z,0.32
2023-05-04T08:35:47.376Z,0.30
2023-05-04T08:37:48.782Z,0.30
2023-05-04T08:39:50.476Z,0.30
2023-05-04T08:41:51.985Z,0.40
2023-05-04T08:43:53.574Z,0.30
2023-05-04T08:45:55.533Z,0.30
2023-05-04T08:47:57.066Z,0.30
2023-05-04T08:49:58.643Z,0.40
2023-05-04T08:52:00.604Z,0.30
2023-05-04T08:54:04.207Z,0.25
2023-05-04T08:56:10.012Z,0.40
2023-05-04T08:58:12.946Z,0.32
2023-05-04T09:00:16.269Z,0.30
2023-05-04T09:02:19.297Z,0.30
2023-05-04T09:04:20.835Z,0.22
2023-05-04T09:06:22.544Z,0.25
2023-05-04T09:08:24.070Z,0.30
2023-05-04T09:10:27.450Z,0.30
2023-05-04T09:12:31.316Z,0.30
2023-05-04T09:14:34.095Z,0.35
2023-05-04T09:16:36.641Z,0.30
2023-05-04T09:18:39.444Z,0.30
2023-05-04T09:20:47.647Z,0.40
2023-05-04T09:22:59.505Z,0.30
2023-05-04T09:25:11.358Z,0.30
2023-05-04T09:27:13.601Z,0.30
2023-05-04T09:29:15.817Z,0.30
2023-05-04T09:31:17.328Z,0.30
2023-05-04T09:33:25.351Z,0.20
2023-05-04T09:35:33.086Z,0.30
2023-05-04T09:37:43.100Z,0.30
2023-05-04T09:39:56.461Z,0.43
2023-05-04T09:41:57.884Z,0.30
2023-05-04T09:43:59.412Z,0.30
2023-05-04T09:46:01.765Z,0.28
2023-05-04T09:48:04.093Z,0.30
2023-05-04T09:50:21.047Z,0.30
2023-05-04T09:52:23.557Z,0.30
2023-05-04T09:54:26.544Z,0.40
2023-05-04T09:56:44.060Z,0.30
2023-05-04T09:58:48.078Z,0.30
2023-05-04T10:00:49.934Z,0.20
2023-05-04T10:02:51.842Z,0.30
2023-05-04T10:04:54.244Z,0.38
2023-05-04T10:06:55.841Z,0.35
2023-05-04T10:08:58.737Z,0.40
2023-05-04T10:11:00.226Z,0.30
2023-05-04T10:13:01.845Z,0.40
2023-05-04T10:15:06.302Z,0.30
2023-05-04T10:17:13.681Z,0.28
2023-05-04T10:19:34.071Z,0.30
2023-05-04T10:21:44.990Z,0.30
2023-05-04T10:24:00.045Z,0.40
2023-05-04T10:26:22.377Z,0.20
2023-05-04T10:28:38.143Z,0.30
2023-05-04T10:30:40.070Z,0.40
2023-05-04T10:32:41.548Z,0.20
2023-05-04T10:34:43.103Z,0.30
2023-05-04T10:36:44.749Z,0.38
2023-05-04T10:38:46.361Z,0.30
2023-05-04T10:40:49.620Z,0.38
2023-05-04T10:42:51.154Z,0.40
2023-05-04T10:44:54.968Z,0.40
2023-05-04T10:47:00.299Z,0.32
2023-05-04T10:49:02.299Z,0.30
2023-05-04T10:51:04.469Z,0.30
2023-05-04T10:53:06.082Z,0.30
2023-05-04T10:55:08.938Z,0.30
2023-05-04T10:57:12.606Z,0.30
2023-05-04T10:59:14.934Z,0.30
2023-05-04T11:01:16.947Z,0.30
2023-05-04T11:03:19.439Z,0.30
2023-05-04T11:05:21.260Z,0.30
2023-05-04T11:07:33.688Z,0.38
2023-05-04T11:09:36.215Z,0.30
2023-05-04T11:11:37.863Z,0.20
2023-05-04T11:13:46.129Z,0.45
2023-05-04T11:15:48.680Z,0.30
2023-05-04T11:17:51.295Z,0.30
2023-05-04T11:19:52.975Z,0.43
2023-05-04T11:21:54.570Z,0.35
2023-05-04T11:23:58.789Z,0.32
2023-05-04T11:26:08.444Z,0.40
2023-05-04T11:30:12.874Z,0.50
2023-05-04T11:32:14.369Z,0.30
2023-05-04T11:34:19.969Z,0.30
2023-05-04T11:36:24.578Z,0.30
2023-05-04T11:38:26.797Z,0.22
2023-05-04T11:40:29.273Z,0.30
2023-05-04T11:42:32.457Z,0.30
2023-05-04T11:44:34.094Z,0.40
2023-05-04T11:46:35.868Z,0.30
2023-05-04T11:48:37.878Z,0.25
2023-05-04T11:50:39.488Z,0.20
2023-05-04T11:52:41.514Z,0.30
2023-05-04T11:54:42.936Z,0.30
2023-05-04T11:56:44.408Z,0.20
2023-05-04T11:58:46.196Z,0.20
2023-05-04T12:00:49.659Z,0.40
2023-05-04T12:02:55.565Z,0.30
2023-05-04T12:04:57.163Z,0.20
2023-05-04T12:07:00.305Z,0.22
2023-05-04T12:09:05.487Z,0.30
2023-05-04T12:11:21.512Z,0.30
2023-05-04T12:13:23.164Z,0.30
2023-05-04T12:15:28.530Z,0.30
2023-05-04T12:17:39.422Z,0.40
2023-05-04T12:19:51.099Z,0.35
2023-05-04T12:21:53.381Z,0.30
2023-05-04T12:23:56.278Z,0.30
2023-05-04T12:25:58.642Z,0.30
2023-05-04T12:28:00.558Z,0.30
2023-05-04T12:30:02.165Z,0.30
2023-05-04T12:32:03.737Z,0.30
2023-05-04T12:34:05.567Z,0.20
2023-05-04T12:36:07.277Z,0.30
2023-05-04T12:38:08.800Z,0.32
2023-05-04T12:40:27.387Z,0.30
2023-05-04T12:42:30.046Z,0.30
2023-05-04T12:44:31.490Z,0.30
2023-05-04T12:46:33.133Z,0.30
2023-05-04T12:48:34.779Z,0.30
2023-05-04T12:50:36.682Z,0.30
2023-05-04T12:52:39.827Z,0.20
2023-05-04T12:54:41.339Z,0.22
2023-05-04T12:56:43.445Z,0.28
2023-05-04T12:58:44.928Z,0.22
2023-05-04T13:00:47.561Z,0.30
2023-05-04T13:02:49.072Z,0.20
2023-05-04T13:04:50.665Z,0.20
2023-05-04T13:06:52.437Z,0.25
2023-05-04T13:08:54.115Z,0.30
2023-05-04T13:10:55.921Z,0.20
2023-05-04T13:12:57.601Z,0.32
2023-05-04T13:14:59.554Z,0.30
2023-05-04T13:17:01.069Z,0.20
2023-05-04T13:19:02.920Z,0.30
2023-05-04T13:21:04.589Z,0.30
2023-05-04T13:23:06.294Z,0.22
2023-05-04T13:25:08.672Z,0.38
2023-05-04T13:27:10.348Z,0.20
2023-05-04T13:29:11.950Z,0.30
2023-05-04T13:31:13.805Z,0.30
2023-05-04T13:33:28.006Z,0.30
2023-05-04T13:35:30.711Z,0.30
2023-05-04T13:37:32.549Z,0.38
2023-05-04T13:39:41.182Z,0.40
2023-05-04T13:41:42.805Z,0.40
2023-05-04T13:43:44.211Z,0.20
2023-05-04T13:45:45.658Z,0.38
2023-05-04T13:47:47.136Z,0.40
2023-05-04T13:49:49.535Z,0.30
2023-05-04T13:51:51.065Z,0.30
2023-05-04T13:53:52.492Z,0.30
2023-05-04T13:55:54.122Z,0.30
2023-05-04T13:57:55.734Z,0.35
2023-05-04T14:00:05.920Z,0.30
2023-05-04T14:02:09.021Z,0.30
2023-05-04T14:04:10.545Z,0.50
2023-05-04T14:06:12.008Z,0.30
2023-05-04T14:08:13.692Z,0.30
2023-05-04T14:10:15.200Z,0.40
2023-05-04T14:12:18.268Z,0.30
2023-05-04T14:14:21.808Z,0.30
2023-05-04T14:16:23.596Z,0.20
2023-05-04T14:18:25.391Z,0.30
2023-05-04T14:20:26.883Z,0.30
2023-05-04T14:22:28.305Z,0.30
2023-05-04T14:24:29.993Z,0.30
2023-05-04T14:26:31.930Z,0.38
2023-05-04T14:28:33.524Z,0.20
2023-05-04T14:30:35.092Z,0.30
2023-05-04T14:32:36.612Z,0.30
2023-05-04T14:34:38.111Z,0.30
2023-05-04T14:36:39.954Z,0.30
2023-05-04T14:38:42.809Z,0.30
2023-05-04T14:40:44.359Z,0.30
2023-05-04T14:42:45.917Z,0.40
2023-05-04T14:44:47.879Z,0.50
2023-05-04T14:46:49.558Z,0.32
2023-05-04T14:48:51.131Z,0.40
2023-05-04T14:50:53.235Z,0.50
2023-05-04T14:52:54.938Z,0.60
2023-05-04T14:54:56.443Z,0.52
2023-05-04T14:56:59.085Z,0.50
2023-05-04T14:59:01.698Z,0.50
2023-05-04T15:01:03.569Z,0.40
2023-05-04T15:03:05.321Z,0.40
2023-05-04T15:05:07.334Z,0.30
2023-05-04T15:07:09.449Z,0.30
2023-05-04T15:09:11.013Z,0.22
2023-05-04T15:11:12.473Z,0.20
2023-05-04T15:13:15.801Z,0.30
2023-05-04T15:15:17.680Z,0.30
2023-05-04T15:17:20.166Z,0.22
2023-05-04T15:19:22.034Z,0.28
2023-05-04T15:21:23.495Z,0.20
2023-05-04T15:23:24.959Z,0.30
2023-05-04T15:25:27.345Z,0.38
2023-05-04T15:27:28.804Z,0.30
2023-05-04T15:29:30.312Z,0.30
2023-05-04T15:31:31.797Z,0.30
2023-05-04T15:33:33.325Z,0.30
2023-05-04T15:35:35.945Z,0.30
2023-05-04T15:37:37.497Z,0.30
2023-05-04T15:39:38.921Z,0.20
2023-05-04T15:41:40.737Z,0.20
2023-05-04T15:43:42.318Z,0.30
2023-05-04T15:45:43.805Z,0.20
2023-05-04T15:47:45.770Z,0.20
2023-05-04T15:49:47.731Z,0.20
2023-05-04T15:51:49.490Z,0.20
2023-05-04T15:53:51.495Z,0.22
2023-05-04T15:55:53.054Z,0.20
2023-05-04T15:57:54.493Z,0.20
2023-05-04T15:59:56.224Z,0.20
2023-05-04T16:01:57.688Z,0.20
2023-05-04T16:03:59.777Z,0.10
2023-05-04T16:06:01.657Z,0.15
2023-05-04T16:08:03.255Z,0.22
2023-05-04T16:10:05.213Z,0.15
2023-05-04T16:12:07.300Z,0.20
2023-05-04T16:14:08.725Z,0.20
2023-05-04T16:16:10.259Z,0.10
2023-05-04T16:18:11.808Z,0.20
2023-05-04T16:20:13.228Z,0.20
2023-05-04T16:22:14.793Z,0.10
2023-05-04T16:24:16.364Z,0.17
2023-05-04T16:26:17.849Z,0.10
2023-05-04T16:28:19.366Z,0.30
2023-05-04T16:30:21.621Z,0.10
2023-05-04T16:32:23.415Z,0.10
2023-05-04T16:34:25.156Z,0.20
2023-05-04T16:36:26.664Z,0.10
2023-05-04T16:38:28.134Z,0.20
2023-05-04T16:40:32.220Z,0.20
2023-05-04T16:42:33.714Z,0.20
2023-05-04T16:44:35.408Z,0.20
2023-05-04T16:46:36.977Z,0.20
2023-05-04T16:48:38.815Z,0.20
2023-05-04T16:50:40.364Z,0.30
2023-05-04T16:52:41.820Z,0.17
2023-05-04T16:54:43.292Z,0.20
2023-05-04T16:56:44.968Z,0.17
2023-05-04T16:58:46.393Z,0.10
2023-05-04T17:00:47.839Z,0.30
2023-05-04T17:02:49.558Z,0.20
2023-05-04T17:04:51.080Z,0.10
2023-05-04T17:06:52.514Z,0.20
2023-05-04T17:08:54.150Z,0.15
2023-05-04T17:10:59.274Z,0.17
2023-05-04T17:13:03.426Z,0.20
2023-05-04T17:15:05.141Z,0.15
2023-05-04T17:17:06.904Z,0.20
2023-05-04T17:19:11.182Z,0.17
2023-05-04T17:21:12.907Z,0.20
2023-05-04T17:23:14.342Z,0.10
2023-05-04T17:25:15.774Z,0.10
2023-05-04T17:27:17.256Z,0.20
2023-05-04T17:29:18.673Z,0.10
2023-05-04T17:31:20.381Z,0.10
2023-05-04T17:33:22.662Z,0.10
2023-05-04T17:35:26.330Z,0.20
2023-05-04T17:37:28.437Z,0.10
2023-05-04T17:39:32.777Z,0.20
2023-05-04T17:41:34.240Z,0.10
2023-05-04T17:43:35.921Z,0.20
2023-05-04T17:45:37.401Z,0.20
2023-05-04T17:47:39.108Z,0.10
2023-05-04T17:49:40.960Z,0.15
2023-05-04T17:51:42.419Z,0.10
2023-05-04T17:53:44.154Z,0.20
2023-05-04T17:55:45.817Z,0.20
2023-05-04T17:57:47.432Z,0.20
2023-05-04T17:59:50.143Z,0.10
2023-05-04T18:01:51.652Z,0.20
2023-05-04T18:03:53.204Z,0.10
2023-05-04T18:05:54.900Z,0.10
2023-05-04T18:07:56.298Z,0.10
2023-05-04T18:09:57.940Z,0.20
2023-05-04T18:11:59.433Z,0.10
2023-05-04T18:14:01.053Z,0.10
2023-05-04T18:16:02.617Z,0.10
2023-05-04T18:18:04.168Z,0.10
2023-05-04T18:20:07.297Z,0.20
2023-05-04T18:22:09.009Z,0.13
2023-05-04T18:24:10.739Z,0.13
2023-05-04T18:26:19.303Z,0.00
2023-05-04T18:28:20.966Z,0.10
2023-05-04T18:30:22.349Z,0.10
2023-05-04T18:32:24.444Z,0.05
2023-05-04T18:34:25.988Z,0.10
2023-05-04T18:36:27.363Z,0.00
2023-05-04T18:38:28.827Z,0.10
2023-05-04T18:40:31.649Z,0.03
2023-05-04T18:42:33.050Z,0.10
2023-05-04T18:44:36.620Z,0.10
2023-05-04T18:46:38.147Z,0.08
2023-05-04T18:48:39.927Z,0.00
2023-05-04T18:50:41.440Z,0.00
2023-05-04T18:52:42.876Z,0.00
2023-05-04T18:54:44.349Z,0.10
2023-05-04T18:56:45.872Z,0.00
2023-05-04T18:58:47.369Z,0.00
2023-05-04T19:00:48.780Z,0.00
2023-05-04T19:02:51.648Z,0.08
2023-05-04T19:04:53.271Z,0.10
2023-05-04T19:06:54.683Z,0.10
2023-05-04T19:08:56.238Z,0.10
2023-05-04T19:11:00.326Z,0.10
2023-05-04T19:13:02.705Z,0.00
2023-05-04T19:15:04.628Z,0.00
2023-05-04T19:17:06.258Z,0.00
2023-05-04T19:19:07.743Z,0.10
2023-05-04T19:21:09.208Z,0.10
2023-05-04T19:23:10.826Z,0.00
2023-05-04T19:25:20.338Z,0.00
2023-05-04T19:27:28.731Z,0.10
2023-05-04T19:29:30.166Z,0.03
2023-05-04T19:31:31.873Z,0.10
2023-05-04T19:33:47.410Z,0.10
2023-05-04T19:35:49.995Z,0.00
2023-05-04T19:37:51.427Z,0.00
2023-05-04T19:39:53.022Z,0.10
2023-05-04T19:41:54.585Z,0.08
2023-05-04T19:43:55.999Z,0.10
2023-05-04T19:45:57.487Z,0.10
2023-05-04T19:47:59.118Z,0.00
2023-05-04T19:50:00.624Z,0.00
2023-05-04T19:52:02.117Z,0.00
2023-05-04T19:54:03.608Z,0.10
2023-05-04T19:56:05.217Z,0.10
2023-05-04T19:58:06.751Z,0.10
2023-05-04T20:00:10.165Z,0.00
2023-05-04T20:02:12.392Z,0.10
2023-05-04T20:04:13.826Z,0.10
2023-05-04T20:06:15.339Z,0.00
2023-05-04T20:08:18.088Z,0.00
2023-05-04T20:10:19.568Z,0.10
2023-05-04T20:12:21.461Z,0.00
2023-05-04T20:14:23.035Z,0.03
2023-05-04T20:16:24.498Z,0.08
2023-05-04T20:18:26.061Z,0.05
2023-05-04T20:20:27.696Z,0.10
2023-05-04T20:22:29.170Z,0.00
2023-05-04T20:24:30.769Z,0.10
2023-05-04T20:26:32.190Z,0.10
2023-05-04T20:28:33.728Z,0.10
2023-05-04T20:30:35.312Z,0.10
2023-05-04T20:32:36.768Z,0.00
2023-05-04T20:34:39.607Z,0.10
2023-05-04T20:36:41.154Z,0.00
2023-05-04T20:38:42.561Z,0.10
2023-05-04T20:40:44.022Z,0.00
2023-05-04T20:42:45.396Z,0.10
2023-05-04T20:44:46.836Z,0.10
2023-05-04T20:46:48.566Z,0.03
2023-05-04T20:48:50.297Z,0.00
2023-05-04T20:50:57.132Z,0.03
2023-05-04T20:53:04.573Z,0.10
2023-05-04T20:55:07.719Z,0.00
2023-05-04T20:57:09.263Z,0.00
2023-05-04T20:59:10.891Z,0.00
2023-05-04T21:01:12.332Z,0.10
2023-05-04T21:03:13.884Z,0.00
2023-05-04T21:05:15.474Z,0.00
2023-05-04T21:07:16.910Z,0.00
2023-05-04T21:09:18.313Z,0.00
2023-05-04T21:11:19.800Z,0.00
2023-05-04T21:13:21.216Z,0.00
2023-05-04T21:15:23.048Z,0.10
2023-05-04T21:17:25.707Z,0.10
2023-05-04T21:19:27.461Z,0.05
2023-05-04T21:21:31.549Z,0.00
2023-05-04T21:23:33.169Z,0.00
2023-05-04T21:25:34.692Z,0.10
2023-05-04T21:27:36.123Z,0.00
2023-05-04T21:29:37.577Z,0.03
2023-05-04T21:31:39.380Z,0.10
2023-05-04T21:33:40.957Z,0.10
2023-05-04T21:35:42.409Z,0.10
2023-05-04T21:37:44.044Z,0.00
2023-05-04T21:39:46.370Z,0.00
2023-05-04T21:41:47.896Z,0.10
2023-05-04T21:43:49.328Z,0.00
2023-05-04T21:45:50.776Z,0.10
2023-05-04T21:47:52.573Z,0.10
2023-05-04T21:49:54.379Z,0.00
2023-05-04T21:51:55.844Z,0.00
2023-05-04T21:53:57.360Z,0.00
2023-05-04T21:56:11.045Z,0.10
2023-05-04T21:58:12.546Z,0.00
2023-05-04T22:00:17.846Z,0.00
2023-05-04T22:02:19.391Z,0.00
2023-05-04T22:04:21.506Z,0.10
2023-05-04T22:06:24.478Z,0.00
2023-05-04T22:08:26.683Z,0.00
2023-05-04T22:10:28.334Z,0.00
2023-05-04T22:12:29.858Z,0.10
2023-05-04T22:14:31.391Z,0.00
2023-05-04T22:16:32.933Z,0.00
2023-05-04T22:18:34.353Z,0.10
2023-05-04T22:20:35.714Z,0.10
2023-05-04T22:22:37.168Z,0.10
2023-05-04T22:24:38.913Z,0.00
2023-05-04T22:26:40.972Z,0.00
2023-05-04T22:28:42.370Z,0.00
2023-05-04T22:30:43.819Z,0.00
2023-05-04T22:32:45.352Z,0.00
2023-05-04T22:34:46.776Z,0.13
2023-05-04T22:36:48.600Z,0.00
2023-05-04T22:38:52.813Z,0.00
2023-05-04T22:40:54.439Z,0.00
2023-05-04T22:42:55.917Z,0.00
2023-05-04T22:44:57.687Z,0.08
2023-05-04T22:46:59.194Z,0.00
2023-05-04T22:49:00.665Z,0.10
2023-05-04T22:51:02.136Z,0.00
2023-05-04T22:53:03.673Z,0.03
2023-05-04T22:55:05.775Z,0.00
2023-05-04T22:57:07.485Z,0.00
2023-05-04T22:59:09.223Z,0.00
2023-05-04T23:01:11.562Z,0.03
2023-05-04T23:03:13.621Z,0.00
2023-05-04T23:05:15.092Z,0.00
2023-05-04T23:07:16.569Z,0.05
2023-05-04T23:09:18.628Z,0.00
2023-05-04T23:11:20.551Z,0.00
2023-05-04T23:13:22.046Z,0.00
2023-05-04T23:15:24.642Z,0.00
2023-05-04T23:17:26.273Z,0.00
2023-05-04T23:19:28.157Z,0.00
2023-05-04T23:21:29.850Z,0.00
2023-05-04T23:23:31.362Z,0.05
2023-05-04T23:25:32.920Z,0.00
2023-05-04T23:27:34.358Z,0.10
2023-05-04T23:29:35.907Z,0.00
2023-05-04T23:31:37.322Z,0.00
2023-05-04T23:33:38.833Z,0.00
2023-05-04T23:35:40.488Z,0.00
2023-05-04T23:37:41.997Z,0.10
2023-05-04T23:39:45.624Z,0.00
2023-05-04T23:41:47.359Z,0.10
2023-05-04T23:43:48.836Z,0.03
2023-05-04T23:45:50.834Z,0.08
2023-05-04T23:47:53.245Z,0.10
2023-05-04T23:49:54.775Z,0.00
2023-05-04T23:51:56.498Z,0.00
2023-05-04T23:53:58.077Z,0.00
2023-05-04T23:56:03.347Z,0.00
2023-05-04T23:58:05.375Z,0.08
